createdAt,value
2023-03-18T00:03:03.128Z,11.79
2023-03-18T00:08:06.529Z,11.81
2023-03-18T00:13:08.086Z,11.79
2023-03-18T00:18:09.729Z,11.80
2023-03-18T00:23:11.478Z,11.80
2023-03-18T00:28:13.627Z,11.78
2023-03-18T00:33:16.337Z,11.76
2023-03-18T00:38:21.873Z,11.74
2023-03-18T00:43:29.382Z,11.73
2023-03-18T00:48:31.434Z,11.72
2023-03-18T00:53:32.949Z,11.69
2023-03-18T00:58:36.902Z,11.66
2023-03-18T01:03:44.319Z,11.66
2023-03-18T01:08:45.868Z,11.62
2023-03-18T01:13:47.911Z,11.59
2023-03-18T01:18:49.639Z,11.53
2023-03-18T01:23:51.328Z,11.47
2023-03-18T01:28:53.178Z,11.39
2023-03-18T01:33:56.068Z,11.32
2023-03-18T01:39:00.670Z,11.25
2023-03-18T01:44:04.254Z,11.17
2023-03-18T01:49:15.558Z,11.13
2023-03-18T01:54:18.798Z,11.06
2023-03-18T01:59:24.044Z,11.00
2023-03-18T02:04:32.608Z,10.96
2023-03-18T02:09:34.632Z,10.89
2023-03-18T02:14:39.438Z,10.82
2023-03-18T02:19:52.835Z,10.75
2023-03-18T02:25:13.487Z,10.69
2023-03-18T02:30:27.700Z,10.67
2023-03-18T02:35:32.217Z,10.63
2023-03-18T02:40:38.807Z,10.63
2023-03-18T02:46:11.316Z,10.62
2023-03-18T02:51:14.776Z,10.61
2023-03-18T02:56:16.868Z,10.60
2023-03-18T03:01:20.153Z,10.60
2023-03-18T03:06:22.086Z,10.57
2023-03-18T03:11:24.369Z,10.58
2023-03-18T03:16:29.612Z,10.57
2023-03-18T03:21:34.084Z,10.55
2023-03-18T03:26:36.055Z,10.52
2023-03-18T03:31:37.632Z,10.44
2023-03-18T03:36:40.856Z,10.33
2023-03-18T03:41:42.637Z,10.20
2023-03-18T03:46:44.536Z,10.09
2023-03-18T03:51:46.418Z,10.02
2023-03-18T03:56:48.705Z,9.98
2023-03-18T04:01:51.076Z,9.98
2023-03-18T04:06:52.752Z,9.99
2023-03-18T04:11:54.815Z,10.00
2023-03-18T04:16:58.152Z,10.02
2023-03-18T04:22:01.241Z,10.03
2023-03-18T04:27:04.658Z,10.01
2023-03-18T04:32:06.752Z,9.98
2023-03-18T04:37:10.427Z,9.96
2023-03-18T04:42:14.177Z,9.94
2023-03-18T04:47:16.411Z,9.92
2023-03-18T04:52:20.204Z,9.92
2023-03-18T04:57:22.169Z,9.91
2023-03-18T05:02:28.266Z,9.90
2023-03-18T05:07:30.156Z,9.90
2023-03-18T05:12:38.259Z,9.89
2023-03-18T05:17:41.863Z,9.87
2023-03-18T05:22:43.822Z,9.86
2023-03-18T05:27:51.746Z,9.84
2023-03-18T05:33:03.486Z,9.82
2023-03-18T05:38:16.406Z,9.77
2023-03-18T05:43:18.302Z,9.72
2023-03-18T05:48:27.074Z,9.72
2023-03-18T05:53:33.670Z,9.71
2023-03-18T05:58:45.871Z,9.72
2023-03-18T06:03:57.195Z,9.73
2023-03-18T06:09:00.787Z,9.76
2023-03-18T06:14:07.248Z,9.80
2023-03-18T06:19:10.821Z,9.84
2023-03-18T06:24:14.563Z,9.87
2023-03-18T06:29:18.222Z,9.90
2023-03-18T06:34:20.461Z,9.94
2023-03-18T06:39:22.239Z,9.96
2023-03-18T06:44:25.301Z,9.99
2023-03-18T06:49:30.850Z,10.04
2023-03-18T06:54:41.763Z,10.11
2023-03-18T06:59:43.636Z,10.19
2023-03-18T07:04:45.412Z,10.24
2023-03-18T07:09:47.696Z,10.27
2023-03-18T07:14:49.351Z,10.32
2023-03-18T07:19:53.374Z,10.37
2023-03-18T07:24:55.513Z,10.42
2023-03-18T07:29:57.129Z,10.46
2023-03-18T07:34:59.213Z,10.51
2023-03-18T07:40:01.371Z,10.58
2023-03-18T07:45:03.105Z,10.63
2023-03-18T07:50:05.723Z,10.72
2023-03-18T07:55:09.136Z,10.81
2023-03-18T08:00:12.500Z,10.88
2023-03-18T08:05:19.125Z,10.98
2023-03-18T08:10:20.883Z,11.05
2023-03-18T08:15:23.259Z,11.17
2023-03-18T08:20:24.882Z,11.25
2023-03-18T08:25:26.670Z,11.34
2023-03-18T08:30:28.891Z,11.45
2023-03-18T08:35:30.918Z,11.54
2023-03-18T08:40:34.760Z,11.62
2023-03-18T08:45:36.799Z,11.74
2023-03-18T08:50:38.723Z,11.85
2023-03-18T08:55:40.739Z,11.95
2023-03-18T09:00:43.028Z,12.04
2023-03-18T09:05:49.310Z,12.13
2023-03-18T09:10:53.642Z,12.24
2023-03-18T09:15:55.319Z,12.34
2023-03-18T09:20:57.609Z,12.47
2023-03-18T09:25:59.776Z,12.55
2023-03-18T09:31:01.711Z,12.65
2023-03-18T09:36:04.514Z,12.76
2023-03-18T09:41:41.287Z,12.88
2023-03-18T09:47:14.688Z,13.00
2023-03-18T09:52:22.610Z,13.13
2023-03-18T09:57:30.450Z,13.23
2023-03-18T10:02:40.451Z,13.37
2023-03-18T10:07:44.627Z,13.50
2023-03-18T10:12:50.705Z,13.62
2023-03-18T10:18:22.386Z,13.77
2023-03-18T10:23:37.597Z,13.90
2023-03-18T10:28:42.566Z,14.04
2023-03-18T10:33:56.209Z,14.19
2023-03-18T10:38:59.776Z,14.36
2023-03-18T10:44:32.575Z,14.52
2023-03-18T10:49:41.072Z,14.71
2023-03-18T10:54:53.201Z,14.86
2023-03-18T10:59:55.286Z,15.00
2023-03-18T11:05:04.354Z,15.18
2023-03-18T11:10:23.876Z,15.33
2023-03-18T11:15:26.448Z,15.49
2023-03-18T11:20:44.086Z,15.66
2023-03-18T11:25:48.574Z,15.81
2023-03-18T11:30:54.883Z,15.95
2023-03-18T11:36:09.724Z,16.06
2023-03-18T11:41:17.418Z,16.17
2023-03-18T11:46:21.447Z,16.33
2023-03-18T11:51:51.262Z,16.52
2023-03-18T11:57:16.426Z,16.71
2023-03-18T12:02:41.165Z,16.91
2023-03-18T12:07:56.840Z,17.09
2023-03-18T12:13:29.802Z,17.25
2023-03-18T12:18:44.491Z,17.41
2023-03-18T12:24:09.006Z,17.58
2023-03-18T12:29:39.419Z,17.76
2023-03-18T12:35:16.062Z,17.89
2023-03-18T12:40:54.219Z,18.05
2023-03-18T12:46:03.605Z,18.16
2023-03-18T12:51:10.621Z,18.26
2023-03-18T12:56:43.318Z,18.40
2023-03-18T13:01:49.398Z,18.51
2023-03-18T13:07:15.990Z,18.62
2023-03-18T13:12:23.688Z,18.71
2023-03-18T13:17:36.196Z,18.83
2023-03-18T13:22:44.025Z,18.88
2023-03-18T13:27:53.965Z,18.96
2023-03-18T13:33:13.377Z,19.07
2023-03-18T13:38:20.635Z,19.20
2023-03-18T13:43:24.632Z,19.31
2023-03-18T13:48:33.731Z,19.42
2023-03-18T13:53:43.922Z,19.52
2023-03-18T13:58:52.525Z,19.64
2023-03-18T14:03:57.118Z,19.76
2023-03-18T14:08:58.736Z,19.87
2023-03-18T14:14:05.970Z,20.00
2023-03-18T14:19:32.617Z,20.10
2023-03-18T14:24:35.009Z,20.21
2023-03-18T14:29:36.599Z,20.35
2023-03-18T14:34:47.937Z,20.47
2023-03-18T14:39:53.002Z,20.63
2023-03-18T14:44:59.285Z,20.74
2023-03-18T14:50:04.428Z,20.83
2023-03-18T14:55:14.344Z,20.98
2023-03-18T15:00:18.028Z,21.05
2023-03-18T15:05:22.750Z,21.11
2023-03-18T15:10:27.903Z,21.17
2023-03-18T15:15:29.520Z,21.27
2023-03-18T15:20:36.183Z,21.37
2023-03-18T15:25:41.249Z,21.47
2023-03-18T15:31:00.337Z,21.53
2023-03-18T15:36:16.464Z,21.53
2023-03-18T15:41:21.589Z,21.56
2023-03-18T15:46:27.818Z,21.59
2023-03-18T15:51:40.416Z,21.62
2023-03-18T15:56:48.695Z,21.59
2023-03-18T16:01:50.116Z,21.50
2023-03-18T16:06:53.669Z,21.45
2023-03-18T16:12:00.414Z,21.31
2023-03-18T16:17:02.570Z,21.12
2023-03-18T16:22:04.250Z,20.94
2023-03-18T16:27:06.073Z,20.75
2023-03-18T16:32:11.855Z,20.58
2023-03-18T16:37:23.936Z,20.39
2023-03-18T16:42:25.456Z,20.19
2023-03-18T16:47:27.662Z,20.04
2023-03-18T16:52:29.325Z,19.86
2023-03-18T16:57:31.583Z,19.72
2023-03-18T17:02:34.780Z,19.56
2023-03-18T17:07:36.981Z,19.41
2023-03-18T17:12:39.867Z,19.32
2023-03-18T17:17:41.933Z,19.18
2023-03-18T17:22:43.864Z,19.07
2023-03-18T17:27:55.287Z,18.93
2023-03-18T17:32:56.835Z,18.80
2023-03-18T17:37:59.139Z,18.68
2023-03-18T17:43:01.241Z,18.56
2023-03-18T17:48:23.818Z,18.41
2023-03-18T17:53:27.309Z,18.32
2023-03-18T17:58:31.194Z,18.23
2023-03-18T18:03:34.932Z,18.15
2023-03-18T18:08:37.230Z,18.07
2023-03-18T18:13:38.803Z,17.99
2023-03-18T18:18:41.570Z,17.89
2023-03-18T18:23:45.418Z,17.81
2023-03-18T18:28:49.525Z,17.72
2023-03-18T18:33:51.598Z,17.66
2023-03-18T18:38:53.158Z,17.60
2023-03-18T18:43:55.557Z,17.52
2023-03-18T18:48:57.154Z,17.46
2023-03-18T18:53:59.898Z,17.38
2023-03-18T18:59:05.245Z,17.30
2023-03-18T19:04:14.536Z,17.23
2023-03-18T19:09:21.952Z,17.15
2023-03-18T19:14:26.578Z,17.07
2023-03-18T19:19:30.911Z,16.97
2023-03-18T19:24:36.701Z,16.87
2023-03-18T19:29:38.459Z,16.77
2023-03-18T19:34:39.962Z,16.69
2023-03-18T19:39:42.712Z,16.60
2023-03-18T19:44:45.273Z,16.52
2023-03-18T19:49:46.964Z,16.44
2023-03-18T19:54:49.934Z,16.36
2023-03-18T19:59:54.254Z,16.26
2023-03-18T20:05:01.047Z,16.18
2023-03-18T20:10:02.616Z,16.09
2023-03-18T20:15:05.799Z,16.00
2023-03-18T20:20:13.136Z,15.91
2023-03-18T20:25:24.278Z,15.81
2023-03-18T20:30:28.202Z,15.69
2023-03-18T20:35:33.027Z,15.58
2023-03-18T20:40:34.898Z,15.47
2023-03-18T20:45:36.448Z,15.36
2023-03-18T20:50:38.602Z,15.30
2023-03-18T20:55:41.335Z,15.24
2023-03-18T21:00:43.903Z,15.20
2023-03-18T21:05:46.352Z,15.17
2023-03-18T21:10:48.100Z,15.13
2023-03-18T21:15:49.609Z,15.10
2023-03-18T21:20:51.283Z,15.07
2023-03-18T21:25:53.410Z,15.05
2023-03-18T21:30:58.314Z,15.03
2023-03-18T21:36:01.120Z,14.97
2023-03-18T21:41:03.071Z,14.93
2023-03-18T21:46:07.466Z,14.88
2023-03-18T21:51:37.226Z,14.82
2023-03-18T21:56:39.953Z,14.77
2023-03-18T22:01:41.645Z,14.70
2023-03-18T22:06:43.220Z,14.62
2023-03-18T22:11:44.793Z,14.57
2023-03-18T22:16:46.493Z,14.58
2023-03-18T22:21:48.205Z,14.55
2023-03-18T22:26:49.724Z,14.54
2023-03-18T22:31:51.430Z,14.49
2023-03-18T22:36:53.010Z,14.45
2023-03-18T22:41:54.560Z,14.40
2023-03-18T22:46:56.180Z,14.32
2023-03-18T22:51:57.781Z,14.27
2023-03-18T22:56:59.411Z,14.21
2023-03-18T23:02:00.956Z,14.18
2023-03-18T23:07:02.610Z,14.12
2023-03-18T23:12:04.248Z,14.10
2023-03-18T23:17:06.308Z,14.01
2023-03-18T23:22:11.714Z,13.96
2023-03-18T23:27:13.249Z,13.91
2023-03-18T23:32:16.409Z,13.83
2023-03-18T23:37:18.408Z,13.76
2023-03-18T23:42:20.866Z,13.71
2023-03-18T23:47:22.393Z,13.67
2023-03-18T23:52:24.025Z,13.63
2023-03-18T23:57:25.610Z,13.59
